Flight Track Log - Related Links

Times and Time Zones

All times are in EDT time to prevent confusion due to time zone crossing. See the N839CA flight status page for this flight to view local times or setup timezone preferences in your user account.

Time Position Orientation Groundspeed Altitude Reporting Facility
EDT Latitude Longitude Course Direction KTS MPH feet Rate Location/Type
Sun 07:50:00 AM 40.9772 -74.1193 North  Level Estimated
Sun 07:51:00 AM 41.0484 -74.1069 North  Level Estimated
Sun 07:52:00 AM 41.1196 -74.0944 North  Level Estimated
Sun 07:53:00 AM 41.1908 -74.0820 North  Level Estimated
Sun 07:54:00 AM 41.2619 -74.0695 North  Level Estimated
Sun 07:55:00 AM 41.3331 -74.0570 North  Level Estimated
Sun 07:56:00 AM 41.4043 -74.0444 North  Level Estimated
Sun 07:57:00 AM 41.4754 -74.0319 North  Level Estimated
Sun 07:58:00 AM 41.5466 -74.0192 North  Level Estimated
Sun 07:59:00 AM 41.6178 -74.0066 North  Level Estimated
Sun 08:00:00 AM 41.6889 -73.9940 North  Level Estimated
Sun 08:01:00 AM 41.7601 -73.9813 North  Level Estimated
Sun 08:02:00 AM 41.8312 -73.9686 North  Level Estimated
Sun 08:03:00 AM 41.9024 -73.9558 North  Level Estimated
Sun 08:04:00 AM 41.9736 -73.9430 North  Level Estimated
Sun 08:05:00 AM 42.0447 -73.9303 North  Level Estimated
Sun 08:06:00 AM 42.1159 -73.9174 North  Level Estimated
Sun 08:07:00 AM 42.1870 -73.9046 North  Level Estimated
Sun 08:08:00 AM 42.2582 -73.8917 North  Level Estimated
Sun 08:09:00 AM 42.3293 -73.8788 North  Level Estimated
Sun 08:10:00 AM 42.4005 -73.8658 North  Level Estimated
Sun 08:11:00 AM 42.4716 -73.8529 North  Level Estimated
Sun 08:12:00 AM 42.5428 -73.8399 North  Level Estimated
Sun 08:13:00 AM 42.6139 -73.8268 North  Level Estimated
Sun 08:14:00 AM 42.6851 -73.8138 North  Level Estimated
Sun 08:15:00 AM 42.7491 -73.8020 North  Level Estimated
Sun 08:16:00 AM 42.7491 -73.8020 304° West  Level Estimated
Sun 08:17:00 AM 42.7491 -73.8020 304° West  Level Estimated
Sun 08:18:00 AM 42.7491 -73.8020 304° West  Level Estimated
Sun 08:19:00 AM 42.7491 -73.8020 304° West  Level Estimated
Sun 08:20:00 AM 42.7491 -73.8020 304° West  Level Estimated
Sun 08:21:00 AM 42.7491 -73.8020 304° West  Level Estimated
Sun 08:22:00 AM 42.7491 -73.8020 304° West  Level Estimated
Sun 08:23:00 AM 42.7491 -73.8020 304° West  Level Estimated
Sun 08:24:00 AM 42.7491 -73.8020 304° West  Level Estimated
Sun 08:25:00 AM 42.7491 -73.8020 304° West  Level Estimated
Sun 08:26:00 AM 42.7491 -73.8020 304° West  Level Estimated
Sun 08:27:00 AM 42.7491 -73.8020 304° West  Level Estimated
Sun 08:28:00 AM 42.7491 -73.8020 304° West  Level Estimated
Sun 08:29:00 AM 42.7491 -73.8020 304° West  Level Estimated
Sun 08:30:00 AM 42.7491 -73.8020 304° West  Level Estimated
Sun 08:31:00 AM 42.7491 -73.8020 304° West  Level Estimated

Login

Don't have an account? Register now (free) for customized features, flight alerts, and more!